Terminal Aerodrome Forecast
Issued by NWS

Home | Current Version | Previous Version | Text Only | Print | Product List | Glossary On
Versions: 1 2 3 4 5 6 7 8 9 10 11 12 13 14 15 16 17 18 19 20 21
000
FTUS44 KTSA 172300
TAFBVO
TAF
KBVO 172320Z 1800/1824 16008KT P6SM VCTS SCT040CB OVC100
      TEMPO 1800/1804 3SM TSRA BR OVC030CB
     FM180400 VRB05KT 5SM TSRA BR OVC040CB
     FM181200 15008KT P6SM BKN020
     FM181800 16011KT 3SM TSRA BR OVC015CB=

USA.gov is the U.S. government's official web portal to all federal, state and local government web resources and services.